Time;durP1;ratioP1;P1;durP2;ratioP2;P2;SDS_P1;SDS_P2;PMS_P1;PMS_P2;Temp;Humidity;BMP_temperature;BMP_pressure;BME280_temperature;BME280_humidity;BME280_pressure;Samples;Min_cycle;Max_cycle;Signal;HPM_P1;HPM_P2
2024/03/19 00:00:51;;;;;;;5.10;2.67;;;6.10;99.90;;;;;;2078085;28;20269;-67
2024/03/19 00:01:51;;;;;;;7.47;3.93;;;6.10;99.90;;;;;;2077040;28;20296;-67
2024/03/19 00:02:52;;;;;;;6.93;3.87;;;6.10;99.90;;;;;;2078654;28;20254;-68
2024/03/19 00:03:54;;;;;;;3.73;2.70;;;6.10;99.90;;;;;;2074247;28;20229;-67
2024/03/19 00:04:54;;;;;;;4.45;3.17;;;6.10;99.90;;;;;;2078125;28;20652;-65
2024/03/19 00:05:55;;;;;;;10.33;3.57;;;6.10;99.90;;;;;;2067432;28;20241;-67
2024/03/19 00:06:56;;;;;;;6.25;4.10;;;6.10;99.90;;;;;;2058893;28;20234;-66
2024/03/19 00:07:57;;;;;;;6.03;4.07;;;6.20;99.90;;;;;;2073053;28;20235;-65
2024/03/19 00:08:58;;;;;;;5.17;3.13;;;6.20;99.90;;;;;;2078209;28;20236;-65
2024/03/19 00:09:58;;;;;;;6.07;2.93;;;6.10;99.90;;;;;;2070707;28;20467;-65
2024/03/19 00:10:59;;;;;;;3.47;2.67;;;6.10;99.90;;;;;;2069993;28;20233;-65
2024/03/19 00:12:00;;;;;;;4.80;2.90;;;6.10;99.90;;;;;;2062187;28;20741;-66
2024/03/19 00:13:00;;;;;;;4.83;3.10;;;6.10;99.90;;;;;;2068645;28;20218;-65
2024/03/19 00:14:01;;;;;;;11.20;4.20;;;6.00;99.90;;;;;;2077708;28;20194;-67
2024/03/19 00:15:05;;;;;;;6.80;3.07;;;6.10;99.90;;;;;;2073668;28;20206;-68
2024/03/19 00:16:06;;;;;;;21.55;4.47;;;6.10;99.90;;;;;;2074533;28;20189;-66
2024/03/19 00:17:07;;;;;;;41.33;6.17;;;6.10;99.90;;;;;;2075052;28;20268;-67
2024/03/19 00:18:07;;;;;;;10.70;3.80;;;6.10;99.90;;;;;;2077666;28;20173;-65
2024/03/19 00:19:08;;;;;;;23.43;6.57;;;6.10;99.90;;;;;;2077888;28;20737;-66
2024/03/19 00:20:09;;;;;;;14.80;4.30;;;6.10;99.90;;;;;;2079097;28;20193;-66
2024/03/19 00:21:10;;;;;;;4.10;3.10;;;6.00;99.90;;;;;;2075018;28;20189;-67
2024/03/19 00:22:11;;;;;;;5.97;3.30;;;5.90;99.90;;;;;;2078100;28;20189;-66
2024/03/19 00:23:11;;;;;;;3.33;2.73;;;5.90;99.90;;;;;;2077523;28;20204;-65
2024/03/19 00:24:12;;;;;;;5.00;2.90;;;5.90;99.90;;;;;;2074173;28;20301;-67
2024/03/19 00:25:13;;;;;;;3.73;2.50;;;5.90;99.90;;;;;;2074438;28;20219;-68
2024/03/19 00:26:14;;;;;;;3.03;2.27;;;6.00;99.90;;;;;;2074672;28;20642;-64
2024/03/19 00:27:15;;;;;;;10.95;4.70;;;6.00;99.90;;;;;;2085111;28;20690;-65
2024/03/19 00:28:15;;;;;;;75.97;10.33;;;5.80;99.90;;;;;;2084420;28;20203;-66
2024/03/19 00:29:16;;;;;;;45.20;7.20;;;5.80;99.90;;;;;;2077131;28;20540;-67
2024/03/19 00:30:17;;;;;;;22.47;4.43;;;5.70;99.90;;;;;;2074413;28;20200;-66
2024/03/19 00:31:20;;;;;;;46.80;7.00;;;5.80;99.90;;;;;;2074864;28;20215;-66
2024/03/19 00:32:21;;;;;;;38.83;6.50;;;5.80;99.90;;;;;;2074259;28;20266;-66
2024/03/19 00:33:21;;;;;;;70.33;11.87;;;5.80;99.90;;;;;;2078092;28;20237;-65
2024/03/19 00:34:22;;;;;;;46.83;8.17;;;5.80;99.90;;;;;;2078379;28;20586;-65
2024/03/19 00:35:23;;;;;;;54.67;10.17;;;5.70;99.90;;;;;;2077739;28;20228;-66
2024/03/19 00:36:23;;;;;;;45.20;8.80;;;5.80;99.90;;;;;;2078750;28;20683;-67
2024/03/19 00:37:24;;;;;;;28.97;6.13;;;5.80;99.90;;;;;;2074648;28;20257;-67
2024/03/19 00:38:26;;;;;;;41.97;10.23;;;5.80;99.90;;;;;;2075177;28;20221;-67
2024/03/19 00:39:28;;;;;;;31.20;7.20;;;5.80;99.90;;;;;;2079193;28;20597;-68
2024/03/19 00:40:29;;;;;;;18.70;4.95;;;5.80;99.90;;;;;;2078687;28;20702;-65
2024/03/19 00:41:30;;;;;;;33.73;5.30;;;5.80;99.90;;;;;;2085101;28;20266;-65
2024/03/19 00:42:34;;;;;;;18.03;4.67;;;5.80;99.90;;;;;;2082575;28;20461;-67
2024/03/19 00:43:34;;;;;;;5.25;3.45;;;5.80;99.90;;;;;;2076936;28;20239;-68
2024/03/19 00:44:35;;;;;;;5.10;3.20;;;5.70;99.90;;;;;;2083122;28;20228;-66
2024/03/19 00:45:36;;;;;;;4.17;3.20;;;5.70;99.90;;;;;;2084390;28;20224;-66
2024/03/19 00:46:36;;;;;;;6.03;3.63;;;5.70;99.90;;;;;;2076589;28;20307;-67
2024/03/19 00:47:38;;;;;;;4.13;3.03;;;5.70;99.90;;;;;;2078111;28;20221;-66
2024/03/19 00:48:39;;;;;;;4.88;2.75;;;5.80;99.90;;;;;;2080695;28;20757;-67
2024/03/19 00:49:40;;;;;;;3.00;2.50;;;5.80;99.90;;;;;;2087319;28;20288;-67
2024/03/19 00:50:40;;;;;;;3.40;2.90;;;5.80;99.90;;;;;;2084113;28;20240;-68
2024/03/19 00:51:42;;;;;;;3.60;2.70;;;5.80;99.90;;;;;;2077096;28;20232;-67
2024/03/19 00:52:42;;;;;;;5.07;3.30;;;5.70;99.90;;;;;;2080466;28;20224;-65
2024/03/19 00:53:43;;;;;;;6.97;4.07;;;5.70;99.90;;;;;;2076019;28;20229;-66
2024/03/19 00:54:44;;;;;;;7.67;4.00;;;5.70;99.90;;;;;;2077997;28;20228;-66
2024/03/19 00:55:45;;;;;;;23.97;6.27;;;5.80;99.90;;;;;;2078701;28;20239;-66
2024/03/19 00:56:46;;;;;;;24.60;6.30;;;5.80;99.90;;;;;;2076218;28;20587;-65
2024/03/19 00:57:47;;;;;;;49.03;8.83;;;5.80;99.90;;;;;;2078302;28;20227;-68
2024/03/19 00:58:48;;;;;;;41.95;7.38;;;5.90;99.90;;;;;;2078177;28;20237;-67
2024/03/19 00:59:48;;;;;;;17.53;4.13;;;5.90;99.90;;;;;;2074829;28;20232;-64
2024/03/19 01:00:51;;;;;;;14.03;4.03;;;5.80;99.90;;;;;;2074911;28;20233;-67
2024/03/19 01:01:52;;;;;;;71.88;8.30;;;5.70;99.90;;;;;;2078715;28;20258;-67
2024/03/19 01:02:52;;;;;;;18.20;4.90;;;5.70;99.90;;;;;;2077109;28;20275;-66
2024/03/19 01:03:54;;;;;;;30.83;5.47;;;5.70;99.90;;;;;;2078274;28;20686;-67
2024/03/19 01:04:55;;;;;;;66.57;8.20;;;5.70;99.90;;;;;;2078181;28;20271;-67
2024/03/19 01:05:56;;;;;;;77.83;8.23;;;5.70;99.90;;;;;;2074643;28;20599;-66
2024/03/19 01:06:56;;;;;;;23.00;4.93;;;5.70;99.90;;;;;;2072560;28;20236;-65
2024/03/19 01:07:57;;;;;;;17.33;4.23;;;5.70;99.90;;;;;;2077758;28;20232;-67
2024/03/19 01:08:58;;;;;;;8.73;3.57;;;5.70;99.90;;;;;;2074386;28;20623;-67
2024/03/19 01:09:58;;;;;;;3.97;2.83;;;5.80;99.90;;;;;;2074175;28;20684;-67
2024/03/19 01:11:01;;;;;;;2.63;2.07;;;5.80;99.90;;;;;;2074744;28;20326;-68
2024/03/19 01:12:02;;;;;;;2.97;2.50;;;5.90;99.90;;;;;;2075720;28;20594;-66
2024/03/19 01:13:03;;;;;;;3.73;2.87;;;5.80;99.90;;;;;;2077836;28;20183;-67
2024/03/19 01:14:05;;;;;;;3.05;2.58;;;5.90;99.90;;;;;;2078030;28;20199;-67
2024/03/19 01:15:08;;;;;;;2.95;2.22;;;5.90;99.90;;;;;;2065741;28;20189;-67
2024/03/19 01:16:09;;;;;;;2.10;1.90;;;5.80;99.90;;;;;;2074387;28;20177;-67
2024/03/19 01:17:12;;;;;;;2.95;2.40;;;5.90;99.90;;;;;;2074416;28;20635;-67
2024/03/19 01:18:12;;;;;;;3.83;2.22;;;6.00;99.90;;;;;;2078239;28;20196;-67
2024/03/19 01:19:13;;;;;;;2.60;2.37;;;5.90;99.90;;;;;;2073481;28;20550;-67
2024/03/19 01:20:15;;;;;;;3.97;2.63;;;6.00;99.90;;;;;;2075827;28;20238;-67
2024/03/19 01:21:18;;;;;;;3.38;2.33;;;6.00;99.90;;;;;;2071392;28;20189;-67
2024/03/19 01:22:19;;;;;;;3.43;2.60;;;6.00;99.90;;;;;;2076240;28;20218;-67
2024/03/19 01:23:20;;;;;;;2.90;2.23;;;6.00;99.90;;;;;;2072518;28;20190;-68
2024/03/19 01:24:21;;;;;;;2.63;2.05;;;6.10;99.90;;;;;;2075314;28;22073;-66
2024/03/19 01:25:21;;;;;;;3.13;2.43;;;6.10;99.90;;;;;;2083831;28;20232;-67
2024/03/19 01:26:22;;;;;;;2.77;2.47;;;6.10;99.90;;;;;;2083997;28;20235;-65
2024/03/19 01:27:23;;;;;;;2.58;2.22;;;6.10;99.90;;;;;;2076699;28;20232;-66
2024/03/19 01:28:24;;;;;;;3.03;2.20;;;6.20;99.90;;;;;;2076437;28;20726;-66
2024/03/19 01:29:24;;;;;;;3.23;2.50;;;6.20;99.90;;;;;;2087586;28;20621;-66
2024/03/19 01:30:25;;;;;;;3.30;2.43;;;6.20;99.90;;;;;;2088004;28;20220;-66
2024/03/19 01:31:28;;;;;;;3.23;2.23;;;6.20;99.90;;;;;;2080369;28;20221;-66
2024/03/19 01:32:29;;;;;;;3.10;2.25;;;6.20;99.90;;;;;;2080909;28;20227;-66
2024/03/19 01:33:30;;;;;;;4.00;2.50;;;6.20;99.90;;;;;;2076040;28;20787;-67
2024/03/19 01:34:31;;;;;;;12.10;2.50;;;6.20;99.90;;;;;;2077200;28;20233;-66
2024/03/19 01:35:31;;;;;;;29.57;5.00;;;6.10;99.90;;;;;;2086583;28;20274;-67
2024/03/19 01:36:32;;;;;;;24.97;4.40;;;6.10;99.90;;;;;;2084869;28;20313;-67
2024/03/19 01:37:33;;;;;;;93.23;9.33;;;6.10;99.90;;;;;;2078799;28;20258;-66
2024/03/19 01:38:33;;;;;;;84.13;8.67;;;6.10;99.90;;;;;;2076212;28;20213;-66
2024/03/19 01:39:36;;;;;;;37.00;5.77;;;6.00;99.90;;;;;;2075980;28;20224;-66
2024/03/19 01:40:37;;;;;;;47.75;6.68;;;5.90;99.90;;;;;;2083591;28;20605;-66
2024/03/19 01:41:39;;;;;;;57.33;8.70;;;6.00;99.90;;;;;;2083662;28;20258;-68
2024/03/19 01:42:40;;;;;;;142.10;16.20;;;6.00;99.90;;;;;;2076043;28;20228;-66
2024/03/19 01:43:41;;;;;;;69.30;7.97;;;5.90;99.90;;;;;;2075707;28;20278;-66
2024/03/19 01:44:42;;;;;;;84.23;9.17;;;5.90;99.90;;;;;;2076231;28;20667;-67
2024/03/19 01:45:43;;;;;;;74.67;10.37;;;6.00;99.90;;;;;;2078591;28;20282;-66
2024/03/19 01:46:46;;;;;;;93.05;10.35;;;5.90;99.90;;;;;;2079413;28;20205;-68
2024/03/19 01:47:47;;;;;;;81.45;12.18;;;5.90;99.90;;;;;;2087268;28;20227;-67
2024/03/19 01:48:48;;;;;;;110.80;24.33;;;5.90;99.90;;;;;;2075837;28;20599;-66
2024/03/19 01:49:49;;;;;;;124.45;24.20;;;6.00;99.90;;;;;;2079592;28;20219;-65
2024/03/19 01:50:50;;;;;;;95.70;20.63;;;6.00;99.90;;;;;;2078962;28;20242;-67
2024/03/19 01:51:51;;;;;;;140.00;28.30;;;6.00;99.90;;;;;;2077921;28;20219;-67
2024/03/19 01:52:53;;;;;;;102.63;24.23;;;6.00;99.90;;;;;;2078237;28;20301;-66
2024/03/19 01:53:56;;;;;;;54.72;13.63;;;5.90;99.90;;;;;;2087123;28;21090;-67
2024/03/19 01:54:57;;;;;;;88.93;18.98;;;6.00;99.90;;;;;;2077895;28;20309;-66
2024/03/19 01:55:57;;;;;;;56.87;15.97;;;5.90;99.90;;;;;;2076549;28;20219;-66
2024/03/19 01:56:58;;;;;;;43.87;12.27;;;5.90;99.90;;;;;;2076952;28;20217;-66
2024/03/19 01:57:59;;;;;;;58.85;14.82;;;5.90;99.90;;;;;;2068402;28;20992;-66
2024/03/19 01:59:00;;;;;;;43.75;13.10;;;5.90;99.90;;;;;;2078786;28;20718;-67
2024/03/19 02:00:02;;;;;;;29.33;9.40;;;5.80;99.90;;;;;;2074773;28;21303;-65
2024/03/19 02:01:03;;;;;;;25.85;8.68;;;5.80;99.90;;;;;;2075054;28;20435;-67
2024/03/19 02:02:04;;;;;;;18.10;6.65;;;5.80;99.90;;;;;;2075495;28;20193;-67
2024/03/19 02:03:05;;;;;;;12.37;5.47;;;5.90;99.90;;;;;;2073930;28;20202;-65
2024/03/19 02:04:06;;;;;;;11.07;4.53;;;5.90;99.90;;;;;;2078477;28;20462;-65
2024/03/19 02:05:08;;;;;;;7.17;3.80;;;5.80;99.90;;;;;;2080731;28;20610;-67
2024/03/19 02:06:09;;;;;;;8.18;3.78;;;5.80;99.90;;;;;;2074414;28;20189;-67
2024/03/19 02:07:10;;;;;;;5.17;3.37;;;5.80;99.90;;;;;;2078794;28;20249;-65
2024/03/19 02:08:11;;;;;;;7.57;3.57;;;5.80;99.90;;;;;;2079721;28;20193;-65
2024/03/19 02:09:12;;;;;;;11.15;4.43;;;5.80;99.90;;;;;;2084218;28;20235;-65
2024/03/19 02:10:13;;;;;;;9.27;4.50;;;5.80;99.90;;;;;;2075551;28;20239;-66
2024/03/19 02:11:14;;;;;;;9.27;4.53;;;5.80;99.90;;;;;;2078494;28;20215;-67
2024/03/19 02:12:15;;;;;;;8.70;4.23;;;5.80;99.90;;;;;;2077022;28;20618;-66
2024/03/19 02:13:16;;;;;;;10.18;4.60;;;5.80;99.90;;;;;;2067688;28;20182;-67
2024/03/19 02:14:17;;;;;;;8.77;4.47;;;5.70;99.90;;;;;;2076844;28;20208;-66
2024/03/19 02:15:19;;;;;;;8.63;4.43;;;5.70;99.90;;;;;;2078625;28;20703;-65
2024/03/19 02:16:20;;;;;;;11.73;4.10;;;5.70;99.90;;;;;;2075004;28;20271;-65
2024/03/19 02:17:22;;;;;;;8.93;4.38;;;5.70;99.90;;;;;;2076589;28;20226;-65
2024/03/19 02:18:23;;;;;;;13.18;5.30;;;5.80;99.90;;;;;;2069396;28;20236;-65
2024/03/19 02:19:24;;;;;;;5.97;2.87;;;5.70;99.90;;;;;;2077804;28;20229;-65
2024/03/19 02:20:24;;;;;;;7.47;3.73;;;5.70;99.90;;;;;;2078504;28;20223;-65
2024/03/19 02:21:26;;;;;;;5.30;3.30;;;5.70;99.90;;;;;;2077734;28;20248;-65
2024/03/19 02:22:27;;;;;;;4.43;2.97;;;5.70;99.90;;;;;;2077341;28;20220;-66
2024/03/19 02:23:27;;;;;;;4.97;2.47;;;5.60;99.90;;;;;;2086560;28;20224;-66
2024/03/19 02:24:28;;;;;;;3.70;2.80;;;5.60;99.90;;;;;;2073895;28;20218;-66
2024/03/19 02:25:29;;;;;;;4.77;2.27;;;5.50;99.90;;;;;;2074045;28;20216;-66
2024/03/19 02:26:31;;;;;;;3.17;2.53;;;5.50;99.90;;;;;;2073036;28;20798;-66
2024/03/19 02:27:32;;;;;;;2.97;2.42;;;5.40;99.90;;;;;;2073990;28;20220;-65
2024/03/19 02:28:33;;;;;;;2.73;2.30;;;5.40;99.90;;;;;;2073826;28;20730;-66
2024/03/19 02:29:34;;;;;;;2.80;2.00;;;5.40;99.90;;;;;;2077566;28;20217;-65
2024/03/19 02:30:34;;;;;;;3.22;2.25;;;5.40;99.90;;;;;;2078344;28;20318;-67
2024/03/19 02:31:35;;;;;;;2.60;2.00;;;5.40;99.90;;;;;;2077335;28;20725;-66
2024/03/19 02:32:36;;;;;;;2.90;2.30;;;5.30;99.90;;;;;;2076382;28;20227;-65
2024/03/19 02:33:37;;;;;;;4.13;2.80;;;5.20;99.90;;;;;;2075152;28;20225;-65
2024/03/19 02:34:37;;;;;;;3.90;2.57;;;5.20;99.90;;;;;;2074207;28;20654;-66
2024/03/19 02:35:38;;;;;;;3.03;2.00;;;5.30;99.90;;;;;;2073796;28;20333;-68
2024/03/19 02:36:39;;;;;;;4.53;2.70;;;5.20;99.90;;;;;;2076657;28;20307;-66
2024/03/19 02:37:40;;;;;;;2.70;2.10;;;5.10;99.90;;;;;;2080317;28;20259;-65
2024/03/19 02:38:41;;;;;;;3.43;2.33;;;5.10;99.90;;;;;;2077804;28;20658;-68
2024/03/19 02:39:43;;;;;;;2.92;2.13;;;5.10;99.90;;;;;;2076163;28;20217;-66
2024/03/19 02:40:44;;;;;;;3.13;2.22;;;5.10;99.90;;;;;;2077026;28;20224;-66
2024/03/19 02:41:45;;;;;;;2.43;2.20;;;5.10;99.90;;;;;;2077409;28;20224;-67
2024/03/19 02:42:46;;;;;;;3.67;2.70;;;5.20;99.90;;;;;;2086041;28;20322;-66
2024/03/19 02:43:46;;;;;;;2.97;2.30;;;5.20;99.90;;;;;;2082877;28;20221;-67
2024/03/19 02:44:47;;;;;;;4.27;2.70;;;5.20;99.90;;;;;;2074963;28;20271;-66
2024/03/19 02:45:48;;;;;;;3.60;2.20;;;5.20;99.90;;;;;;2074436;28;20218;-66
2024/03/19 02:46:49;;;;;;;3.27;2.47;;;5.20;99.90;;;;;;2077253;28;20217;-67
2024/03/19 02:47:49;;;;;;;4.10;2.70;;;5.20;99.90;;;;;;2075304;28;20225;-69
2024/03/19 02:48:50;;;;;;;2.60;2.17;;;5.30;99.90;;;;;;2075115;28;20660;-67
2024/03/19 02:49:51;;;;;;;5.37;2.40;;;5.20;99.90;;;;;;2075117;28;20225;-67
2024/03/19 02:50:52;;;;;;;3.43;2.50;;;5.30;99.90;;;;;;2075503;28;20706;-67
2024/03/19 02:51:52;;;;;;;3.37;2.40;;;5.30;99.90;;;;;;2074997;28;20295;-67
2024/03/19 02:52:53;;;;;;;2.70;2.10;;;5.20;99.90;;;;;;2073199;28;20217;-66
2024/03/19 02:53:54;;;;;;;3.57;2.03;;;5.20;99.90;;;;;;2073983;28;20228;-66
2024/03/19 02:54:54;;;;;;;3.80;2.77;;;5.20;99.90;;;;;;2074699;28;20228;-65
2024/03/19 02:55:55;;;;;;;3.47;2.10;;;5.00;99.90;;;;;;2074693;28;20699;-67
2024/03/19 02:56:56;;;;;;;4.27;1.97;;;5.10;99.90;;;;;;2077019;28;20300;-66
2024/03/19 02:57:57;;;;;;;3.83;2.60;;;5.10;99.90;;;;;;2074681;28;20454;-67
2024/03/19 02:58:57;;;;;;;6.20;2.80;;;5.10;99.90;;;;;;2073205;28;20217;-66
2024/03/19 02:59:58;;;;;;;2.43;2.00;;;5.10;99.90;;;;;;2074495;28;20250;-65
2024/03/19 03:00:59;;;;;;;3.67;2.40;;;5.10;99.90;;;;;;2075290;28;20704;-68
2024/03/19 03:01:59;;;;;;;3.80;2.23;;;5.20;99.90;;;;;;2074196;28;20288;-66
2024/03/19 03:03:00;;;;;;;5.07;2.00;;;5.10;99.90;;;;;;2073714;28;20251;-66
2024/03/19 03:04:01;;;;;;;4.53;2.27;;;5.20;99.90;;;;;;2074386;28;20224;-63
2024/03/19 03:05:01;;;;;;;7.73;2.90;;;5.20;99.90;;;;;;2075050;28;20214;-65
2024/03/19 03:06:02;;;;;;;4.97;2.87;;;5.10;99.90;;;;;;2073942;28;20647;-66
2024/03/19 03:07:03;;;;;;;69.00;7.23;;;5.10;99.90;;;;;;2075084;28;20181;-68
2024/03/19 03:08:05;;;;;;;21.97;4.30;;;5.10;99.90;;;;;;2073953;28;20180;-66
2024/03/19 03:09:06;;;;;;;10.60;3.10;;;5.10;99.90;;;;;;2077825;28;20181;-67
2024/03/19 03:10:07;;;;;;;16.20;4.38;;;5.10;99.90;;;;;;2072987;28;20268;-67
2024/03/19 03:11:08;;;;;;;19.03;3.70;;;5.10;99.90;;;;;;2073744;28;20215;-66
2024/03/19 03:12:08;;;;;;;11.73;3.57;;;5.20;99.90;;;;;;2073820;28;20178;-66
2024/03/19 03:13:10;;;;;;;9.77;3.37;;;5.20;99.90;;;;;;2077944;28;20177;-67
2024/03/19 03:14:11;;;;;;;10.30;2.97;;;5.20;99.90;;;;;;2074912;28;20182;-67
2024/03/19 03:15:12;;;;;;;31.10;6.30;;;5.20;99.90;;;;;;2073878;28;20173;-66
2024/03/19 03:16:13;;;;;;;37.42;6.05;;;5.20;99.90;;;;;;2074205;28;20208;-66
2024/03/19 03:17:13;;;;;;;41.40;7.23;;;5.30;99.90;;;;;;2074133;28;20186;-65
2024/03/19 03:18:15;;;;;;;134.67;11.90;;;5.30;99.90;;;;;;2077036;28;20184;-66
2024/03/19 03:19:15;;;;;;;97.90;10.02;;;5.20;99.90;;;;;;2076920;28;20186;-66
2024/03/19 03:20:17;;;;;;;82.60;6.37;;;5.10;99.90;;;;;;2076822;28;20216;-66
2024/03/19 03:21:18;;;;;;;43.03;6.55;;;5.00;99.90;;;;;;2077523;28;20679;-66
2024/03/19 03:22:19;;;;;;;25.17;5.13;;;5.00;99.90;;;;;;2074398;28;20182;-66
2024/03/19 03:23:19;;;;;;;99.70;9.43;;;5.00;99.90;;;;;;2070266;28;20198;-68
2024/03/19 03:24:20;;;;;;;54.90;7.93;;;5.00;99.90;;;;;;2081901;28;20192;-66
2024/03/19 03:25:21;;;;;;;113.60;8.33;;;5.00;99.90;;;;;;2074446;28;20914;-66
2024/03/19 03:26:22;;;;;;;28.70;5.55;;;5.00;99.90;;;;;;2074628;28;20229;-67
2024/03/19 03:27:24;;;;;;;22.73;3.53;;;5.10;99.90;;;;;;2069113;28;20319;-66
2024/03/19 03:28:24;;;;;;;15.40;4.22;;;5.10;99.90;;;;;;2074410;28;20867;-66
2024/03/19 03:29:25;;;;;;;26.30;4.40;;;5.00;99.90;;;;;;2087167;28;20239;-65
2024/03/19 03:30:26;;;;;;;66.20;7.37;;;5.10;99.90;;;;;;2075847;28;20225;-67
2024/03/19 03:31:27;;;;;;;26.60;4.27;;;5.10;99.90;;;;;;2073765;28;20237;-66
2024/03/19 03:32:28;;;;;;;72.83;9.53;;;5.10;99.90;;;;;;2073896;28;20462;-66
2024/03/19 03:33:30;;;;;;;29.50;4.15;;;5.10;99.90;;;;;;2069198;28;20324;-66
2024/03/19 03:34:31;;;;;;;58.63;7.57;;;5.20;99.90;;;;;;2077534;28;20221;-66
2024/03/19 03:35:32;;;;;;;63.03;6.13;;;5.20;99.90;;;;;;2076923;28;20227;-67
2024/03/19 03:36:34;;;;;;;50.67;4.43;;;5.20;99.90;;;;;;2074577;28;20271;-66
2024/03/19 03:37:35;;;;;;;25.08;3.47;;;5.20;99.90;;;;;;2074850;28;20235;-66
2024/03/19 03:38:35;;;;;;;74.87;7.57;;;5.10;99.90;;;;;;2075069;28;20224;-66
2024/03/19 03:39:36;;;;;;;62.97;10.47;;;5.10;99.90;;;;;;2077494;28;20221;-66
2024/03/19 03:40:37;;;;;;;16.57;2.87;;;5.10;99.90;;;;;;2076694;28;20228;-66
2024/03/19 03:41:38;;;;;;;24.63;5.07;;;5.10;99.90;;;;;;2074744;28;20229;-67
2024/03/19 03:42:42;;;;;;;9.57;2.20;;;5.10;99.90;;;;;;2074163;28;20229;-66
2024/03/19 03:43:43;;;;;;;125.25;11.75;;;5.20;99.90;;;;;;2073409;28;20225;-66
2024/03/19 03:44:44;;;;;;;51.90;6.10;;;5.20;99.90;;;;;;2071906;28;20225;-67
2024/03/19 03:45:44;;;;;;;80.73;8.00;;;5.20;99.90;;;;;;2073918;28;20230;-67
2024/03/19 03:46:45;;;;;;;133.90;16.43;;;5.10;99.90;;;;;;2075039;28;20244;-66
2024/03/19 03:47:46;;;;;;;18.77;4.77;;;5.10;99.90;;;;;;2074203;28;20305;-66
2024/03/19 03:48:47;;;;;;;46.50;6.40;;;5.10;99.90;;;;;;2077421;28;20216;-66
2024/03/19 03:49:47;;;;;;;16.07;3.90;;;5.10;99.90;;;;;;2075861;28;20705;-65
2024/03/19 03:50:48;;;;;;;37.33;7.63;;;5.10;99.90;;;;;;2067233;28;20233;-67
2024/03/19 03:51:49;;;;;;;11.50;2.57;;;5.10;99.90;;;;;;2069717;28;20272;-66
2024/03/19 03:52:49;;;;;;;54.63;10.47;;;5.10;99.90;;;;;;2074824;28;20233;-67
2024/03/19 03:53:50;;;;;;;52.20;5.20;;;5.00;99.90;;;;;;2073976;28;20237;-66
2024/03/19 03:54:51;;;;;;;84.90;12.50;;;5.00;99.90;;;;;;2075290;28;20213;-67
2024/03/19 03:55:52;;;;;;;11.60;3.60;;;5.00;99.90;;;;;;2074252;28;20624;-67
2024/03/19 03:56:53;;;;;;;3.17;2.50;;;4.90;99.90;;;;;;2073969;28;20647;-66
2024/03/19 03:57:55;;;;;;;3.45;2.30;;;4.80;99.90;;;;;;2073983;28;20234;-66
2024/03/19 03:58:57;;;;;;;7.18;2.72;;;4.80;99.90;;;;;;2073200;28;20229;-65
2024/03/19 03:59:58;;;;;;;2.03;1.83;;;4.70;99.90;;;;;;2074328;28;20278;-67
2024/03/19 04:00:58;;;;;;;3.63;1.80;;;4.70;99.90;;;;;;2074201;28;20593;-67
2024/03/19 04:01:59;;;;;;;5.10;2.40;;;4.70;99.90;;;;;;2073954;28;20336;-65
2024/03/19 04:03:00;;;;;;;14.13;3.47;;;4.70;99.90;;;;;;2073891;28;20786;-68
2024/03/19 04:04:01;;;;;;;5.50;3.00;;;4.60;99.90;;;;;;2073624;28;20217;-66
2024/03/19 04:05:02;;;;;;;5.90;2.53;;;4.60;99.90;;;;;;2073586;28;20277;-64
2024/03/19 04:06:04;;;;;;;3.00;2.20;;;4.50;99.90;;;;;;2069019;28;20691;-66
2024/03/19 04:07:04;;;;;;;9.55;2.50;;;4.50;99.90;;;;;;2065151;28;20679;-66
2024/03/19 04:08:05;;;;;;;3.63;2.20;;;4.50;99.90;;;;;;2073897;28;20229;-67
2024/03/19 04:09:06;;;;;;;3.90;2.13;;;4.50;99.90;;;;;;2073477;28;20247;-67
2024/03/19 04:10:09;;;;;;;7.87;2.20;;;4.50;99.90;;;;;;2073840;28;20281;-65
2024/03/19 04:11:12;;;;;;;3.20;2.13;;;4.40;99.90;;;;;;2065568;28;20879;-66
2024/03/19 04:12:13;;;;;;;5.18;2.10;;;4.50;99.90;;;;;;2069318;28;20248;-66
2024/03/19 04:13:13;;;;;;;3.23;2.10;;;4.40;99.90;;;;;;2077399;28;20197;-65
2024/03/19 04:14:14;;;;;;;4.50;2.23;;;4.40;99.90;;;;;;2073773;28;20261;-66
2024/03/19 04:15:16;;;;;;;7.57;2.90;;;4.40;99.90;;;;;;2073585;28;20628;-66
2024/03/19 04:16:17;;;;;;;4.25;2.35;;;4.50;99.90;;;;;;2065502;28;20248;-66
2024/03/19 04:17:18;;;;;;;2.85;1.80;;;4.50;99.90;;;;;;2073528;28;20181;-67
2024/03/19 04:18:19;;;;;;;3.97;1.90;;;4.50;99.90;;;;;;2089560;28;20652;-65
2024/03/19 04:19:20;;;;;;;2.63;2.07;;;4.50;99.90;;;;;;2075770;28;20193;-67
2024/03/19 04:20:20;;;;;;;6.97;2.20;;;4.50;99.90;;;;;;2075330;28;20224;-66
2024/03/19 04:21:21;;;;;;;4.37;2.13;;;4.50;99.90;;;;;;2072881;28;20236;-66
2024/03/19 04:22:22;;;;;;;18.37;2.77;;;4.40;99.90;;;;;;2073449;28;20228;-66
2024/03/19 04:23:22;;;;;;;3.47;2.30;;;4.50;99.90;;;;;;2072802;28;20232;-65
2024/03/19 04:24:23;;;;;;;3.70;2.30;;;4.50;99.90;;;;;;2077190;28;20709;-65
2024/03/19 04:25:24;;;;;;;2.60;1.83;;;4.50;99.90;;;;;;2073442;28;20300;-65
2024/03/19 04:26:24;;;;;;;3.27;1.90;;;4.50;99.90;;;;;;2073531;28;20228;-65
2024/03/19 04:27:25;;;;;;;6.30;2.63;;;4.50;99.90;;;;;;2073688;28;20869;-66
2024/03/19 04:28:26;;;;;;;3.37;2.03;;;4.40;99.90;;;;;;2073214;28;20212;-66
2024/03/19 04:29:27;;;;;;;3.97;2.00;;;4.40;99.90;;;;;;2073560;28;20251;-66
2024/03/19 04:30:27;;;;;;;5.68;2.60;;;4.40;99.90;;;;;;2073201;28;20591;-66
2024/03/19 04:31:28;;;;;;;2.03;1.70;;;4.40;99.90;;;;;;2073659;28;20252;-67
2024/03/19 04:32:29;;;;;;;2.47;2.00;;;4.40;99.90;;;;;;2073531;28;20573;-67
2024/03/19 04:33:29;;;;;;;4.00;2.30;;;4.30;99.90;;;;;;2073105;28;20233;-66
2024/03/19 04:34:30;;;;;;;2.80;1.93;;;4.30;99.90;;;;;;2073107;28;20221;-67
2024/03/19 04:35:31;;;;;;;1.47;1.37;;;4.30;99.90;;;;;;2073527;28;20287;-66
2024/03/19 04:36:32;;;;;;;2.85;1.63;;;4.30;99.90;;;;;;2081116;28;20222;-65
2024/03/19 04:37:32;;;;;;;2.87;1.80;;;4.30;99.90;;;;;;2082961;28;20712;-67
2024/03/19 04:38:33;;;;;;;2.53;1.70;;;4.30;99.90;;;;;;2073035;28;20307;-66
2024/03/19 04:39:34;;;;;;;2.17;1.60;;;4.20;99.90;;;;;;2073634;28;20236;-65
2024/03/19 04:40:34;;;;;;;2.10;1.60;;;4.20;99.90;;;;;;2073543;28;20221;-66
2024/03/19 04:41:37;;;;;;;2.40;1.80;;;4.20;99.90;;;;;;2074794;28;20227;-67
2024/03/19 04:42:39;;;;;;;1.92;1.38;;;4.10;99.90;;;;;;2075232;28;20260;-65
2024/03/19 04:43:39;;;;;;;1.83;1.33;;;4.10;99.90;;;;;;2073198;28;20247;-66
2024/03/19 04:44:40;;;;;;;1.50;1.30;;;4.10;99.90;;;;;;2073569;28;20225;-66
2024/03/19 04:45:41;;;;;;;1.37;1.20;;;4.00;99.90;;;;;;2071972;28;20235;-66
2024/03/19 04:46:41;;;;;;;1.87;1.50;;;3.90;99.90;;;;;;2077666;28;20235;-66
2024/03/19 04:47:42;;;;;;;2.07;1.40;;;3.90;99.90;;;;;;2071223;28;20245;-67
2024/03/19 04:48:43;;;;;;;1.83;1.50;;;3.90;99.90;;;;;;2073330;28;20221;-67
2024/03/19 04:49:44;;;;;;;1.57;1.37;;;3.90;99.90;;;;;;2073252;28;20776;-66
2024/03/19 04:50:44;;;;;;;1.48;1.23;;;4.00;99.90;;;;;;2073787;28;20707;-68
2024/03/19 04:51:46;;;;;;;1.97;1.57;;;4.00;99.90;;;;;;2078355;28;20221;-66
2024/03/19 04:52:47;;;;;;;1.80;1.35;;;4.00;99.90;;;;;;2075260;28;20223;-67
2024/03/19 04:53:47;;;;;;;2.30;1.60;;;4.00;99.90;;;;;;2072031;28;20248;-67
2024/03/19 04:54:49;;;;;;;2.57;1.30;;;4.00;99.90;;;;;;2077384;28;20608;-65
2024/03/19 04:55:50;;;;;;;1.63;1.30;;;4.00;99.90;;;;;;2065990;28;20715;-67
2024/03/19 04:56:50;;;;;;;2.33;1.77;;;4.00;99.90;;;;;;2074867;28;20285;-65
2024/03/19 04:57:51;;;;;;;2.00;1.40;;;4.00;99.90;;;;;;2073482;28;20263;-66
2024/03/19 04:58:52;;;;;;;1.60;1.50;;;4.00;99.90;;;;;;2072647;28;20299;-66
2024/03/19 04:59:53;;;;;;;1.75;1.52;;;3.90;99.90;;;;;;2073313;28;20699;-67
2024/03/19 05:00:53;;;;;;;2.07;1.43;;;4.00;99.90;;;;;;2075531;28;20244;-65
2024/03/19 05:01:54;;;;;;;2.97;2.17;;;3.90;99.90;;;;;;2077346;28;20262;-65
2024/03/19 05:02:55;;;;;;;2.60;2.10;;;3.90;99.90;;;;;;2076285;28;20294;-66
2024/03/19 05:03:56;;;;;;;4.40;3.00;;;3.90;99.90;;;;;;2071921;28;20224;-66
2024/03/19 05:04:56;;;;;;;5.47;3.77;;;3.90;99.90;;;;;;2071195;28;20260;-66
2024/03/19 05:05:57;;;;;;;7.30;4.10;;;3.90;99.90;;;;;;2072008;28;20590;-66
2024/03/19 05:06:58;;;;;;;5.90;3.63;;;3.80;99.90;;;;;;2073953;28;20291;-66
2024/03/19 05:07:59;;;;;;;5.80;3.50;;;3.80;99.90;;;;;;2073167;28;20225;-66
2024/03/19 05:08:59;;;;;;;6.07;4.17;;;3.80;99.90;;;;;;2072272;28;20228;-67
2024/03/19 05:10:00;;;;;;;5.67;4.00;;;3.80;99.90;;;;;;2073250;28;20229;-66
2024/03/19 05:11:01;;;;;;;7.20;5.10;;;3.80;99.90;;;;;;2072140;28;20228;-67
2024/03/19 05:12:02;;;;;;;5.57;3.93;;;3.80;99.90;;;;;;2080937;28;20184;-66
2024/03/19 05:13:02;;;;;;;5.07;3.77;;;3.80;99.90;;;;;;2077215;28;20202;-66
2024/03/19 05:14:03;;;;;;;4.43;3.10;;;3.70;99.90;;;;;;2073161;28;20188;-68
2024/03/19 05:15:06;;;;;;;2.60;2.13;;;3.70;99.90;;;;;;2072886;28;20177;-67
2024/03/19 05:16:07;;;;;;;2.00;1.63;;;3.70;99.90;;;;;;2077064;28;20733;-66
2024/03/19 05:17:08;;;;;;;1.73;1.25;;;3.70;99.90;;;;;;2072489;28;20187;-66
2024/03/19 05:18:08;;;;;;;2.30;1.70;;;3.60;99.90;;;;;;2077141;28;20177;-65
2024/03/19 05:19:09;;;;;;;2.27;1.73;;;3.60;99.90;;;;;;2077251;28;20258;-66
2024/03/19 05:20:11;;;;;;;1.23;1.13;;;3.60;99.90;;;;;;2073022;28;20223;-66